Time;durP1;ratioP1;P1;durP2;ratioP2;P2;SDS_P1;SDS_P2;PMS_P1;PMS_P2;Temp;Humidity;BMP_temperature;BMP_pressure;BME280_temperature;BME280_humidity;BME280_pressure;Samples;Min_cycle;Max_cycle;Signal;HPM_P1;HPM_P2
2021/05/30 00:02:08;;;;;;;4.03;3.10;;;24.90;60.10;;;;;;5036045;28;20570;-90
2021/05/30 00:04:34;;;;;;;2.70;2.50;;;25.00;60.10;;;;;;5036354;28;20447;-90
2021/05/30 00:07:02;;;;;;;2.40;2.30;;;24.90;60.10;;;;;;5036422;28;20462;-89
2021/05/30 00:09:29;;;;;;;2.77;2.57;;;25.00;60.10;;;;;;5036306;28;20849;-90
2021/05/30 00:11:56;;;;;;;2.57;2.37;;;24.90;60.00;;;;;;5036251;28;20920;-89
2021/05/30 00:14:22;;;;;;;2.90;2.70;;;24.90;60.00;;;;;;5036046;28;20448;-89
2021/05/30 00:16:49;;;;;;;1.97;1.87;;;24.90;60.00;;;;;;5036263;28;20448;-89
2021/05/30 00:19:16;;;;;;;2.43;2.33;;;24.90;60.10;;;;;;5036367;28;20792;-89
2021/05/30 00:21:43;;;;;;;2.67;2.57;;;24.90;60.00;;;;;;5036408;28;20453;-89
2021/05/30 00:24:10;;;;;;;2.80;2.60;;;24.90;60.00;;;;;;5036269;28;20450;-89
2021/05/30 00:26:37;;;;;;;2.50;2.30;;;24.90;60.00;;;;;;5035912;28;20502;-90
2021/05/30 00:29:04;;;;;;;2.50;2.30;;;24.90;60.00;;;;;;5035782;28;20502;-89
2021/05/30 00:31:30;;;;;;;2.93;2.73;;;24.90;60.00;;;;;;5035943;28;20441;-89
2021/05/30 00:33:57;;;;;;;3.37;3.13;;;24.90;60.00;;;;;;5035829;28;20437;-90
2021/05/30 00:36:23;;;;;;;2.40;2.30;;;24.90;60.00;;;;;;5035885;28;20442;-89
2021/05/30 00:38:49;;;;;;;2.97;2.77;;;24.90;60.00;;;;;;5035889;28;20471;-89
2021/05/30 00:41:17;;;;;;;3.00;2.80;;;24.90;60.00;;;;;;5035840;28;20792;-90
2021/05/30 00:43:45;;;;;;;2.67;2.20;;;24.90;60.00;;;;;;5035802;28;20925;-90
2021/05/30 00:46:11;;;;;;;2.60;2.43;;;24.90;60.00;;;;;;5035917;28;20451;-88
2021/05/30 00:48:38;;;;;;;2.63;2.43;;;24.90;60.00;;;;;;5035487;28;20501;-89
2021/05/30 00:51:05;;;;;;;2.63;2.53;;;24.90;60.00;;;;;;5035686;28;20449;-90
2021/05/30 00:53:31;;;;;;;2.30;2.20;;;24.90;60.00;;;;;;5035736;28;20797;-89
2021/05/30 00:55:58;;;;;;;3.07;2.87;;;24.90;60.00;;;;;;5035472;28;20544;-89
2021/05/30 00:58:24;;;;;;;3.00;2.80;;;24.90;60.00;;;;;;5034197;28;20964;-89
2021/05/30 01:00:51;;;;;;;2.63;2.43;;;24.90;60.00;;;;;;5035416;28;20446;-89
2021/05/30 01:03:18;;;;;;;2.63;2.53;;;24.80;59.90;;;;;;5035283;28;20455;-89
2021/05/30 01:05:46;;;;;;;2.70;2.50;;;24.90;60.00;;;;;;5035252;28;20437;-89
2021/05/30 01:08:14;;;;;;;3.17;2.97;;;24.80;59.90;;;;;;5035320;28;20453;-89
2021/05/30 01:10:45;;;;;;;2.40;2.30;;;24.90;59.90;;;;;;5025442;28;20535;-89
2021/05/30 01:13:13;;;;;;;2.70;2.50;;;24.80;59.90;;;;;;4997887;28;20483;-89
2021/05/30 01:15:40;;;;;;;2.23;2.13;;;24.80;59.80;;;;;;5015497;28;20453;-89
2021/05/30 01:18:08;;;;;;;2.67;2.47;;;24.80;59.80;;;;;;5015458;28;20450;-89
2021/05/30 01:20:35;;;;;;;2.70;2.50;;;24.80;59.80;;;;;;5015504;28;20802;-89
2021/05/30 01:23:07;;;;;;;2.80;2.60;;;24.80;59.80;;;;;;5015184;28;20491;-90
2021/05/30 01:25:33;;;;;;;2.30;2.20;;;24.80;59.80;;;;;;5015322;28;20450;-90
2021/05/30 01:27:59;;;;;;;2.70;2.50;;;24.80;59.80;;;;;;5015059;28;20451;-89
2021/05/30 01:30:26;;;;;;;2.80;2.60;;;24.80;59.80;;;;;;5015301;28;20493;-89
2021/05/30 01:32:52;;;;;;;2.73;2.53;;;24.80;59.80;;;;;;5015201;28;20974;-89
2021/05/30 01:35:19;;;;;;;2.70;2.50;;;24.80;59.80;;;;;;5015282;28;20498;-89
2021/05/30 01:37:46;;;;;;;2.20;2.10;;;24.80;59.80;;;;;;5015130;28;20452;-89
2021/05/30 01:40:14;;;;;;;2.70;2.50;;;24.80;59.80;;;;;;5014650;28;20512;-89
2021/05/30 01:42:40;;;;;;;2.53;2.33;;;24.80;59.80;;;;;;5014731;28;20445;-89
2021/05/30 01:45:08;;;;;;;2.53;2.33;;;24.80;59.80;;;;;;5015021;28;20448;-89
2021/05/30 01:47:37;;;;;;;2.47;2.30;;;24.80;59.80;;;;;;5014989;28;20438;-89
2021/05/30 01:50:05;;;;;;;2.40;2.30;;;24.80;59.80;;;;;;5014603;28;20481;-89
2021/05/30 01:52:31;;;;;;;2.67;2.47;;;24.80;59.70;;;;;;5014786;28;20457;-90
2021/05/30 01:54:58;;;;;;;2.40;2.30;;;24.80;59.80;;;;;;5014867;28;20487;-89
2021/05/30 01:57:26;;;;;;;2.60;2.40;;;24.80;59.80;;;;;;5014913;28;20442;-89
2021/05/30 01:59:52;;;;;;;2.53;2.43;;;24.80;59.80;;;;;;5014625;28;20995;-89
2021/05/30 02:02:22;;;;;;;2.40;2.30;;;24.80;59.80;;;;;;5014646;28;20451;-88
2021/05/30 02:04:49;;;;;;;2.30;2.20;;;24.90;59.90;;;;;;5014641;28;20453;-89
2021/05/30 02:07:16;;;;;;;2.33;2.23;;;24.80;59.80;;;;;;5014696;28;20449;-90
2021/05/30 02:09:44;;;;;;;2.50;2.40;;;24.80;59.70;;;;;;5015411;28;20499;-89
2021/05/30 02:12:10;;;;;;;2.70;2.50;;;24.80;59.70;;;;;;5034267;28;20456;-90
2021/05/30 02:14:37;;;;;;;2.50;2.40;;;24.70;59.70;;;;;;5034255;28;20489;-89
2021/05/30 02:17:04;;;;;;;2.27;2.17;;;24.70;59.70;;;;;;5033970;28;20449;-90
2021/05/30 02:19:31;;;;;;;2.37;2.17;;;24.80;59.80;;;;;;5033968;28;20441;-89
2021/05/30 02:21:57;;;;;;;2.17;2.07;;;24.70;59.70;;;;;;5033769;28;20932;-90
2021/05/30 02:24:24;;;;;;;2.90;2.70;;;24.70;59.70;;;;;;5016317;28;20437;-89
2021/05/30 02:26:50;;;;;;;2.57;2.37;;;24.70;59.70;;;;;;5034015;28;20442;-89
2021/05/30 02:29:29;;;;;;;2.43;2.33;;;24.80;59.70;;;;;;5033649;28;20502;-89
2021/05/30 02:31:56;;;;;;;2.87;2.67;;;24.70;59.60;;;;;;5034003;28;20510;-89
2021/05/30 02:34:23;;;;;;;2.07;1.97;;;24.70;59.70;;;;;;5033921;28;20541;-90
2021/05/30 02:36:49;;;;;;;2.63;2.43;;;24.80;59.70;;;;;;5033846;28;20449;-89
2021/05/30 02:39:15;;;;;;;2.57;2.37;;;24.70;59.60;;;;;;5033595;28;20526;-90
2021/05/30 02:41:41;;;;;;;2.37;2.27;;;24.70;59.60;;;;;;5033770;28;20509;-89
2021/05/30 02:44:08;;;;;;;2.23;2.07;;;24.70;59.60;;;;;;5033616;28;20600;-89
2021/05/30 02:46:34;;;;;;;2.27;2.10;;;24.70;59.60;;;;;;5033776;28;20435;-89
2021/05/30 02:49:01;;;;;;;2.20;2.10;;;24.70;59.60;;;;;;5033885;28;20835;-89
2021/05/30 02:51:28;;;;;;;4.07;2.23;;;24.70;59.60;;;;;;5033693;28;20460;-89
2021/05/30 02:53:54;;;;;;;2.50;2.40;;;24.70;59.60;;;;;;5033660;28;20461;-89
2021/05/30 02:56:20;;;;;;;2.30;2.10;;;24.70;59.60;;;;;;5033677;28;20448;-90
2021/05/30 02:58:47;;;;;;;2.50;2.30;;;24.70;59.60;;;;;;5033371;28;20452;-89
2021/05/30 03:01:13;;;;;;;2.60;2.50;;;24.70;59.60;;;;;;5033452;28;20452;-89
2021/05/30 03:03:39;;;;;;;2.20;2.10;;;24.70;59.60;;;;;;5033263;28;20444;-89
2021/05/30 03:06:07;;;;;;;2.20;2.10;;;24.70;59.60;;;;;;5033381;28;20462;-89
2021/05/30 03:08:33;;;;;;;2.00;1.90;;;24.70;59.60;;;;;;5033074;28;21012;-90
2021/05/30 03:10:59;;;;;;;2.30;2.20;;;24.70;59.60;;;;;;5033020;28;20486;-89
2021/05/30 03:13:26;;;;;;;2.57;2.47;;;24.70;59.60;;;;;;5033381;28;20445;-90
2021/05/30 03:15:52;;;;;;;2.40;2.30;;;24.70;59.60;;;;;;5015439;28;20451;-90
2021/05/30 03:18:18;;;;;;;2.20;2.10;;;24.70;59.60;;;;;;5033450;28;20470;-89
2021/05/30 03:20:45;;;;;;;2.40;2.30;;;24.70;59.60;;;;;;5034502;28;20452;-89
2021/05/30 03:23:12;;;;;;;2.63;2.43;;;24.70;59.60;;;;;;5037538;28;20459;-89
2021/05/30 03:25:38;;;;;;;2.37;2.23;;;24.70;59.60;;;;;;5037741;28;20449;-89
2021/05/30 03:28:05;;;;;;;2.20;2.10;;;24.70;59.60;;;;;;5037301;28;20443;-90
2021/05/30 03:30:32;;;;;;;2.20;2.10;;;24.70;59.60;;;;;;5037156;28;20491;-90
2021/05/30 03:33:00;;;;;;;2.00;1.90;;;24.60;59.40;;;;;;5036977;28;20449;-89
2021/05/30 03:35:26;;;;;;;2.40;2.20;;;24.70;59.50;;;;;;5036953;28;20448;-89
2021/05/30 03:37:53;;;;;;;2.40;2.30;;;24.80;59.60;;;;;;5037219;28;20447;-90
2021/05/30 03:40:28;;;;;;;2.37;2.27;;;24.60;59.40;;;;;;5036857;28;20472;-89
2021/05/30 03:42:55;;;;;;;2.43;2.33;;;24.60;59.40;;;;;;5036976;28;20436;-89
2021/05/30 03:45:22;;;;;;;2.50;2.30;;;24.60;59.40;;;;;;5037017;28;20440;-90
2021/05/30 03:47:49;;;;;;;1.87;1.77;;;24.70;59.50;;;;;;5036774;28;20463;-89
2021/05/30 03:50:16;;;;;;;2.47;2.27;;;24.60;59.50;;;;;;5037430;28;20490;-89
2021/05/30 03:52:42;;;;;;;2.90;2.70;;;24.60;59.40;;;;;;5036996;28;20491;-89
2021/05/30 03:55:10;;;;;;;2.17;2.07;;;24.60;59.50;;;;;;5036981;28;20456;-88
2021/05/30 03:57:38;;;;;;;2.63;2.43;;;24.60;59.50;;;;;;5036777;28;20444;-90
2021/05/30 04:00:07;;;;;;;2.03;1.93;;;24.70;59.50;;;;;;5036772;28;20934;-90
2021/05/30 04:02:33;;;;;;;2.20;2.10;;;24.60;59.50;;;;;;5036368;28;20446;-89
2021/05/30 04:05:00;;;;;;;2.30;2.20;;;24.60;59.40;;;;;;5036698;28;20473;-89
2021/05/30 04:07:26;;;;;;;2.40;2.30;;;24.60;59.50;;;;;;5036657;28;20450;-89
2021/05/30 04:09:53;;;;;;;2.10;2.00;;;24.60;59.40;;;;;;5036116;28;20580;-89
2021/05/30 04:12:19;;;;;;;2.23;2.13;;;24.60;59.40;;;;;;5036387;28;20452;-89
2021/05/30 04:14:46;;;;;;;2.80;2.60;;;24.60;59.40;;;;;;5036430;28;20456;-90
2021/05/30 04:17:13;;;;;;;2.33;2.23;;;24.60;59.40;;;;;;5036206;28;20492;-89
2021/05/30 04:19:39;;;;;;;2.13;2.03;;;24.60;59.40;;;;;;5018580;28;20508;-89
2021/05/30 04:22:05;;;;;;;2.00;1.90;;;24.70;59.50;;;;;;5036314;28;20442;-89
2021/05/30 04:24:32;;;;;;;2.40;2.30;;;24.60;59.40;;;;;;5036398;28;20445;-90
2021/05/30 04:26:58;;;;;;;2.60;2.40;;;24.60;59.40;;;;;;5035962;28;20974;-89
2021/05/30 04:29:25;;;;;;;2.43;2.23;;;24.50;59.40;;;;;;5035934;28;20511;-89
2021/05/30 04:31:52;;;;;;;2.17;2.07;;;24.60;59.40;;;;;;5035952;28;20444;-90
2021/05/30 04:34:18;;;;;;;2.37;2.27;;;24.60;59.50;;;;;;5018414;28;20444;-89
2021/05/30 04:36:44;;;;;;;2.43;2.33;;;24.60;59.50;;;;;;5035888;28;20981;-90
2021/05/30 04:39:11;;;;;;;2.03;1.93;;;24.60;59.50;;;;;;5036014;28;20474;-89
2021/05/30 04:41:37;;;;;;;2.40;2.30;;;24.50;59.40;;;;;;5035756;28;20448;-90
2021/05/30 04:44:04;;;;;;;2.83;2.63;;;24.60;59.50;;;;;;5035948;28;20441;-89
2021/05/30 04:46:30;;;;;;;2.20;2.00;;;24.60;59.50;;;;;;5035931;28;20443;-89
2021/05/30 04:48:57;;;;;;;2.23;2.07;;;24.60;59.50;;;;;;5035557;28;21008;-89
2021/05/30 04:51:24;;;;;;;2.97;2.77;;;24.70;59.50;;;;;;5035736;28;20451;-90
2021/05/30 04:53:54;;;;;;;2.10;1.90;;;24.60;59.50;;;;;;5035894;28;20809;-89
2021/05/30 04:56:21;;;;;;;2.30;2.20;;;24.50;59.40;;;;;;5035886;28;20508;-89
2021/05/30 04:58:47;;;;;;;2.23;2.13;;;24.60;59.50;;;;;;5035342;28;20924;-90
2021/05/30 05:01:14;;;;;;;2.13;2.03;;;24.60;59.50;;;;;;5035726;28;20503;-89
2021/05/30 05:03:40;;;;;;;2.10;2.00;;;24.60;59.50;;;;;;5035617;28;20511;-89
2021/05/30 05:06:08;;;;;;;2.27;2.17;;;24.50;59.40;;;;;;5035611;28;20482;-90
2021/05/30 05:08:34;;;;;;;2.40;2.27;;;24.60;59.50;;;;;;5035210;28;20989;-89
2021/05/30 05:11:01;;;;;;;2.67;2.43;;;24.50;59.40;;;;;;5035244;28;20590;-89
2021/05/30 05:13:27;;;;;;;2.87;2.67;;;24.50;59.40;;;;;;5035243;28;20530;-89
2021/05/30 05:15:55;;;;;;;2.63;2.43;;;24.50;59.40;;;;;;5035167;28;20444;-89
2021/05/30 05:18:23;;;;;;;2.80;2.60;;;24.60;59.50;;;;;;5035386;28;20452;-89
2021/05/30 05:20:51;;;;;;;1.80;1.70;;;24.50;59.40;;;;;;5035093;28;20499;-89
2021/05/30 05:23:19;;;;;;;2.80;2.60;;;24.50;59.40;;;;;;5034906;28;20874;-89
2021/05/30 05:25:48;;;;;;;2.90;2.70;;;24.50;59.40;;;;;;5035197;28;20456;-89
2021/05/30 05:28:14;;;;;;;2.33;2.23;;;24.50;59.40;;;;;;5034866;28;20444;-89
2021/05/30 05:30:40;;;;;;;2.40;2.30;;;24.50;59.40;;;;;;5034933;28;21004;-89
2021/05/30 05:33:07;;;;;;;2.20;2.10;;;24.50;59.40;;;;;;5034808;28;20811;-89
2021/05/30 05:35:33;;;;;;;2.67;2.47;;;24.50;59.40;;;;;;5034899;28;20436;-89
2021/05/30 05:38:00;;;;;;;2.20;2.10;;;24.50;59.40;;;;;;5034861;28;20444;-89
2021/05/30 05:40:29;;;;;;;2.47;2.27;;;24.50;59.40;;;;;;5034767;28;20532;-89
2021/05/30 05:42:56;;;;;;;2.70;2.60;;;24.50;59.40;;;;;;5034129;28;20436;-89
2021/05/30 05:45:23;;;;;;;2.13;2.03;;;24.50;59.40;;;;;;5034785;28;20437;-89
2021/05/30 05:47:51;;;;;;;2.37;2.27;;;24.50;59.50;;;;;;5034558;28;20455;-89
2021/05/30 05:50:19;;;;;;;2.20;2.10;;;24.50;59.50;;;;;;5034321;28;20991;-88
2021/05/30 05:52:46;;;;;;;2.60;2.20;;;24.50;59.50;;;;;;5034599;28;20478;-90
2021/05/30 05:55:14;;;;;;;2.90;2.70;;;24.50;59.50;;;;;;5034689;28;20452;-90
2021/05/30 05:57:43;;;;;;;2.30;2.20;;;24.50;59.50;;;;;;5034665;28;20797;-90
2021/05/30 06:00:14;;;;;;;3.03;2.83;;;24.50;59.50;;;;;;5034382;28;20526;-90
2021/05/30 06:02:42;;;;;;;3.37;3.17;;;24.50;59.50;;;;;;5034508;28;20483;-90
